createdAt,value
2023-11-07T00:03:42.398Z,95.11
2023-11-07T00:09:04.404Z,95.08
2023-11-07T00:14:27.481Z,94.79
2023-11-07T00:19:49.215Z,94.94
2023-11-07T00:25:10.835Z,94.79
2023-11-07T00:30:33.659Z,95.47
2023-11-07T00:35:55.537Z,95.24
2023-11-07T00:41:17.098Z,95.69
2023-11-07T00:46:38.885Z,95.54
2023-11-07T00:52:01.503Z,96.03
2023-11-07T00:57:23.138Z,96.16
2023-11-07T01:02:46.092Z,96.88
2023-11-07T01:08:08.017Z,97.30
2023-11-07T01:13:29.748Z,97.45
2023-11-07T01:18:53.483Z,97.85
2023-11-07T01:24:15.291Z,97.25
2023-11-07T01:29:37.055Z,97.21
2023-11-07T01:34:59.068Z,97.94
2023-11-07T01:40:20.794Z,98.12
2023-11-07T01:45:43.200Z,98.01
2023-11-07T01:51:05.847Z,98.13
2023-11-07T01:56:29.242Z,98.34
2023-11-07T02:01:53.332Z,98.27
2023-11-07T02:07:15.179Z,98.31
2023-11-07T02:12:39.628Z,99.02
2023-11-07T02:18:01.929Z,99.13
2023-11-07T02:23:31.015Z,99.52
2023-11-07T02:28:53.823Z,98.95
2023-11-07T02:34:15.577Z,99.09
2023-11-07T02:39:37.186Z,99.66
2023-11-07T02:44:59.031Z,99.77
2023-11-07T02:50:21.421Z,98.76
2023-11-07T02:55:43.479Z,97.90
2023-11-07T03:01:05.628Z,97.48
2023-11-07T03:06:27.431Z,97.91
2023-11-07T03:11:49.076Z,97.42
2023-11-07T03:17:10.717Z,97.87
2023-11-07T03:22:32.612Z,97.47
2023-11-07T03:27:54.243Z,97.37
2023-11-07T03:33:18.834Z,97.57
2023-11-07T03:38:43.724Z,96.99
2023-11-07T03:44:05.578Z,96.57
2023-11-07T03:49:27.961Z,96.89
2023-11-07T03:54:49.556Z,96.96
2023-11-07T04:00:11.991Z,96.18
2023-11-07T04:05:33.828Z,96.57
2023-11-07T04:10:55.455Z,96.73
2023-11-07T04:16:17.246Z,96.61
2023-11-07T04:21:38.947Z,97.05
2023-11-07T04:27:00.588Z,96.70
2023-11-07T04:32:22.811Z,97.03
2023-11-07T04:37:44.552Z,97.06
2023-11-07T04:43:06.954Z,96.97
2023-11-07T04:48:28.781Z,96.72
2023-11-07T04:53:50.787Z,96.88
2023-11-07T04:59:14.394Z,96.76
2023-11-07T05:04:36.331Z,96.59
2023-11-07T05:09:59.737Z,96.94
2023-11-07T05:15:21.389Z,97.00
2023-11-07T05:20:45.844Z,97.70
2023-11-07T05:26:07.554Z,97.52
2023-11-07T05:31:29.222Z,98.03
2023-11-07T05:36:50.828Z,97.87
2023-11-07T05:42:12.898Z,98.07
2023-11-07T05:47:35.211Z,98.46
2023-11-07T05:52:58.263Z,98.36
2023-11-07T05:58:21.473Z,98.21
2023-11-07T06:03:43.164Z,98.18
2023-11-07T06:09:05.658Z,98.49
2023-11-07T06:14:27.440Z,98.23
2023-11-07T06:19:49.177Z,98.99
2023-11-07T06:25:13.534Z,98.84
2023-11-07T06:30:35.947Z,99.17
2023-11-07T06:35:57.624Z,98.30
2023-11-07T06:41:19.300Z,98.94
2023-11-07T06:46:42.785Z,98.54
2023-11-07T06:52:04.849Z,98.48
2023-11-07T06:57:26.514Z,98.03
2023-11-07T07:02:49.653Z,98.31
2023-11-07T07:08:11.843Z,97.92
2023-11-07T07:13:34.684Z,97.52
2023-11-07T07:18:56.464Z,97.30
2023-11-07T07:24:22.567Z,97.71
2023-11-07T07:29:44.973Z,97.21
2023-11-07T07:35:15.981Z,96.95
2023-11-07T07:40:39.354Z,96.66
2023-11-07T07:46:00.958Z,95.50
2023-11-07T07:51:22.583Z,96.34
2023-11-07T07:56:49.268Z,96.77
2023-11-07T08:02:11.357Z,96.70
2023-11-07T08:07:34.403Z,96.62
2023-11-07T08:12:57.540Z,96.39
2023-11-07T08:18:19.496Z,97.70
2023-11-07T08:23:41.348Z,100.00
2023-11-07T08:29:09.774Z,100.00
2023-11-07T08:34:34.015Z,100.00
2023-11-07T08:39:57.250Z,100.00
2023-11-07T08:45:21.018Z,100.00
2023-11-07T08:50:42.774Z,100.00
2023-11-07T08:56:04.641Z,100.00
2023-11-07T09:01:26.333Z,100.00
2023-11-07T09:06:47.985Z,100.00
2023-11-07T09:12:11.504Z,100.00
2023-11-07T09:17:33.988Z,100.00
2023-11-07T09:22:55.690Z,100.00
2023-11-07T09:28:17.332Z,100.00
2023-11-07T09:33:39.186Z,100.00
2023-11-07T09:39:00.894Z,100.00
2023-11-07T09:44:23.168Z,100.00
2023-11-07T09:49:46.333Z,100.00
2023-11-07T09:55:10.116Z,100.00
2023-11-07T10:00:35.024Z,100.00
2023-11-07T10:05:59.406Z,100.00
2023-11-07T10:11:21.115Z,100.00
2023-11-07T10:16:43.141Z,100.00
2023-11-07T10:22:09.535Z,98.67
2023-11-07T10:27:31.151Z,99.11
2023-11-07T10:32:57.227Z,99.30
2023-11-07T10:38:19.889Z,98.21
2023-11-07T10:43:42.558Z,97.35
2023-11-07T10:49:06.360Z,97.77
2023-11-07T10:54:31.840Z,96.71
2023-11-07T11:00:05.499Z,95.47
2023-11-07T11:05:27.879Z,94.05
2023-11-07T11:10:50.109Z,94.48
2023-11-07T11:16:13.881Z,93.03
2023-11-07T11:22:16.140Z,93.40
2023-11-07T11:27:42.896Z,92.42
2023-11-07T11:33:12.867Z,92.76
2023-11-07T11:38:40.860Z,91.76
2023-11-07T11:44:13.992Z,90.30
2023-11-07T11:49:35.699Z,90.53
2023-11-07T11:54:57.272Z,92.00
2023-11-07T12:00:21.885Z,90.89
2023-11-07T12:06:00.887Z,91.05
2023-11-07T12:11:27.007Z,90.95
2023-11-07T12:17:11.123Z,90.90
2023-11-07T12:22:34.436Z,90.46
2023-11-07T12:28:05.285Z,90.94
2023-11-07T12:33:30.396Z,90.00
2023-11-07T12:38:52.240Z,91.01
2023-11-07T12:44:16.535Z,89.50
2023-11-07T12:49:39.986Z,89.87
2023-11-07T12:55:16.957Z,89.66
2023-11-07T13:01:02.318Z,89.15
2023-11-07T13:06:24.306Z,89.07
2023-11-07T13:11:45.995Z,89.90
2023-11-07T13:17:09.463Z,89.23
2023-11-07T13:22:31.189Z,90.01
2023-11-07T13:27:54.348Z,89.01
2023-11-07T13:33:16.288Z,88.88
2023-11-07T13:38:37.968Z,89.12
2023-11-07T13:43:59.794Z,88.80
2023-11-07T13:49:22.217Z,89.67
2023-11-07T13:54:43.919Z,88.79
2023-11-07T14:00:12.444Z,89.22
2023-11-07T14:05:34.634Z,88.57
2023-11-07T14:10:56.262Z,88.39
2023-11-07T14:16:18.133Z,89.98
2023-11-07T14:21:40.454Z,89.69
2023-11-07T14:27:02.124Z,92.40
2023-11-07T14:32:23.765Z,94.06
2023-11-07T14:37:45.376Z,96.30
2023-11-07T14:43:14.670Z,99.56
2023-11-07T14:48:38.991Z,97.78
2023-11-07T14:54:01.060Z,98.33
2023-11-07T14:59:24.968Z,99.80
2023-11-07T15:04:46.652Z,100.00
2023-11-07T15:10:11.696Z,100.00
2023-11-07T15:15:34.662Z,100.00
2023-11-07T15:20:57.749Z,100.00
2023-11-07T15:26:19.452Z,100.00
2023-11-07T15:31:41.467Z,100.00
2023-11-07T15:37:03.453Z,100.00
2023-11-07T15:42:25.088Z,100.00
2023-11-07T15:47:48.042Z,100.00
2023-11-07T15:53:10.599Z,100.00
2023-11-07T15:58:32.656Z,100.00
2023-11-07T16:03:54.793Z,100.00
2023-11-07T16:09:17.334Z,100.00
2023-11-07T16:14:39.036Z,100.00
2023-11-07T16:20:01.863Z,100.00
2023-11-07T16:25:24.836Z,100.00
2023-11-07T16:30:46.556Z,100.00
2023-11-07T16:36:08.312Z,100.00
2023-11-07T16:41:32.334Z,100.00
2023-11-07T16:46:54.753Z,100.00
2023-11-07T16:52:16.961Z,100.00
2023-11-07T16:57:38.763Z,99.98
2023-11-07T17:03:00.605Z,100.00
2023-11-07T17:08:22.711Z,100.00
2023-11-07T17:13:44.311Z,99.43
2023-11-07T17:19:06.160Z,98.80
2023-11-07T17:24:28.848Z,98.21
2023-11-07T17:29:50.605Z,99.10
2023-11-07T17:35:12.319Z,98.61
2023-11-07T17:40:33.906Z,97.32
2023-11-07T17:45:55.460Z,97.15
2023-11-07T17:51:23.761Z,96.82
2023-11-07T17:56:45.393Z,96.20
2023-11-07T18:02:07.235Z,96.33
2023-11-07T18:07:29.869Z,95.90
2023-11-07T18:12:51.440Z,95.61
2023-11-07T18:18:14.311Z,95.55
2023-11-07T18:23:37.819Z,95.37
2023-11-07T18:28:59.611Z,95.43
2023-11-07T18:34:23.600Z,95.50
2023-11-07T18:39:45.827Z,95.50
2023-11-07T18:45:11.165Z,95.66
2023-11-07T18:50:32.948Z,95.06
2023-11-07T18:55:55.215Z,95.41
2023-11-07T19:01:16.846Z,95.57
2023-11-07T19:06:38.524Z,95.49
2023-11-07T19:12:02.728Z,95.24
2023-11-07T19:17:24.699Z,95.30
2023-11-07T19:22:46.343Z,95.84
2023-11-07T19:28:08.022Z,95.70
2023-11-07T19:33:29.683Z,95.88
2023-11-07T19:38:51.456Z,95.66
2023-11-07T19:44:13.076Z,95.65
2023-11-07T19:49:34.752Z,95.57
2023-11-07T19:54:57.704Z,95.79
2023-11-07T20:00:24.638Z,95.75
2023-11-07T20:05:48.204Z,95.92
2023-11-07T20:11:10.052Z,96.10
2023-11-07T20:16:31.668Z,96.27
2023-11-07T20:21:53.271Z,95.86
2023-11-07T20:27:15.408Z,96.00
2023-11-07T20:32:37.079Z,95.71
2023-11-07T20:37:58.667Z,95.58
2023-11-07T20:43:20.241Z,95.24
2023-11-07T20:48:42.051Z,94.50
2023-11-07T20:54:04.972Z,95.00
2023-11-07T20:59:27.295Z,94.77
2023-11-07T21:04:49.305Z,94.71
2023-11-07T21:10:12.117Z,94.92
2023-11-07T21:15:33.788Z,94.79
2023-11-07T21:20:55.448Z,94.84
2023-11-07T21:26:17.345Z,94.51
2023-11-07T21:31:39.956Z,95.63
2023-11-07T21:37:01.594Z,97.45
2023-11-07T21:42:23.685Z,97.95
2023-11-07T21:47:45.556Z,98.58
2023-11-07T21:53:07.187Z,98.97
2023-11-07T21:58:28.811Z,98.44
2023-11-07T22:03:50.476Z,98.72
2023-11-07T22:09:12.200Z,98.95
2023-11-07T22:14:33.801Z,99.14
2023-11-07T22:19:58.850Z,100.00
2023-11-07T22:25:20.963Z,100.00
2023-11-07T22:30:42.881Z,100.00
2023-11-07T22:36:06.877Z,100.00
2023-11-07T22:41:28.700Z,100.00
2023-11-07T22:46:50.280Z,100.00
2023-11-07T22:52:14.733Z,100.00
2023-11-07T22:57:36.375Z,100.00
2023-11-07T23:03:01.539Z,100.00
2023-11-07T23:08:23.248Z,100.00
2023-11-07T23:13:44.819Z,100.00
2023-11-07T23:19:06.855Z,100.00
2023-11-07T23:24:28.482Z,100.00
2023-11-07T23:29:55.157Z,100.00
2023-11-07T23:35:18.347Z,100.00
2023-11-07T23:40:40.563Z,100.00
2023-11-07T23:46:02.491Z,100.00
2023-11-07T23:51:24.273Z,100.00
2023-11-07T23:56:45.899Z,100.00
